Old Glory, Texas
Current Conditions -  °F | °C
As of 4:58 PM on Thursday 20 Nov 2014 (Local Time) from KDYS Reporting Station
Clear Clear  
Wind Chill: 71°   Ceiling: Unl
Heat Index: 71°   Visibility: 10mi
Dew Point: 42°   Wind: 13mph
Humidity: 36%   Direction: 200°SSW
Pressure: 29.93"   Gusts: 20mph
Location:  33.13°N, 100.06°W
Report Text: KDYS 202258Z AUTO 20011G17KT 10SM CLR 22/06 A2993 RMK AO2 SLP113 T02170058 $
Loading
Personal Weather Stations






























Interactive Weather Map New forecast layout! Learn more

10-Day Weather Forecast

Advertisements
Track Severe Weather on mobile